Cunningham, Tennessee
Current Conditions -  °F | °C
As of 4:39 AM on Thursday 18 Dec 2014 (Local Time) from KCKV Reporting Station
Freezing Rain Freezing Rain  
Wind Chill: 27°   Ceiling: 8000
Heat Index: 32°   Visibility: 5mi
Dew Point: 29°   Wind: 5mph
Humidity: 88%   Direction: 80°E
Pressure: 30.26"   Gusts: NA
Location:  36.39°N, 87.39°W
Report Text: KCKV 181039Z AUTO 08004KT 5SM -FZRA BR FEW008 SCT060 OVC080 00/M02 A3026 RMK AO2 UPB14E21B36E39FZRAE06B21E36B39 P0001 I1000 T00001017
Loading
Personal Weather Stations






























Interactive Weather Map New forecast layout! Learn more

10-Day Weather Forecast

Advertisements
Track Severe Weather on mobile